createdAt,value
2022-11-29T00:00:49.903Z,2.60
2022-11-29T00:03:16.632Z,2.30
2022-11-29T00:05:43.409Z,2.40
2022-11-29T00:08:09.998Z,2.90
2022-11-29T00:10:37.596Z,4.37
2022-11-29T00:13:04.798Z,2.83
2022-11-29T00:15:36.622Z,2.80
2022-11-29T00:18:03.562Z,3.87
2022-11-29T00:20:30.275Z,2.83
2022-11-29T00:22:56.900Z,2.63
2022-11-29T00:25:23.851Z,2.93
2022-11-29T00:27:51.667Z,4.67
2022-11-29T00:30:19.819Z,3.27
2022-11-29T00:32:46.617Z,3.03
2022-11-29T00:35:13.819Z,2.63
2022-11-29T00:37:40.383Z,2.80
2022-11-29T00:40:07.635Z,3.00
2022-11-29T00:42:34.197Z,2.63
2022-11-29T00:45:00.737Z,3.00
2022-11-29T00:47:27.220Z,3.13
2022-11-29T00:49:53.953Z,2.93
2022-11-29T00:52:20.523Z,2.90
2022-11-29T00:54:47.135Z,2.70
2022-11-29T00:57:13.832Z,4.33
2022-11-29T00:59:40.512Z,4.03
2022-11-29T01:02:07.182Z,3.17
2022-11-29T01:04:34.035Z,2.53
2022-11-29T01:07:00.562Z,3.07
2022-11-29T01:09:27.082Z,2.43
2022-11-29T01:11:53.649Z,2.20
2022-11-29T01:14:20.202Z,2.13
2022-11-29T01:16:46.807Z,2.57
2022-11-29T01:19:13.407Z,2.10
2022-11-29T01:21:40.119Z,1.73
2022-11-29T01:24:06.707Z,2.40
2022-11-29T01:26:33.594Z,1.87
2022-11-29T01:31:44.844Z,2.33
2022-11-29T01:34:11.510Z,3.10
2022-11-29T01:36:38.028Z,1.60
2022-11-29T01:39:05.907Z,2.00
2022-11-29T01:41:35.250Z,2.53
2022-11-29T01:44:14.047Z,1.73
2022-11-29T01:46:43.335Z,2.43
2022-11-29T01:49:31.678Z,2.27
2022-11-29T01:51:59.858Z,2.03
2022-11-29T01:54:27.251Z,1.57
2022-11-29T01:56:54.168Z,1.97
2022-11-29T01:59:23.915Z,1.40
2022-11-29T02:01:52.049Z,1.53
2022-11-29T02:04:19.454Z,3.07
2022-11-29T02:06:46.425Z,1.67
2022-11-29T02:09:31.317Z,1.80
2022-11-29T02:12:14.455Z,2.37
2022-11-29T02:15:07.077Z,2.77
2022-11-29T02:17:44.271Z,2.33
2022-11-29T02:20:35.293Z,3.00
2022-11-29T02:23:37.356Z,2.43
2022-11-29T02:26:36.405Z,2.20
2022-11-29T02:29:29.660Z,1.60
2022-11-29T02:31:56.184Z,1.83
2022-11-29T02:34:37.873Z,1.80
2022-11-29T02:37:46.168Z,1.63
2022-11-29T02:40:51.190Z,1.83
2022-11-29T02:43:40.503Z,1.57
2022-11-29T02:46:34.882Z,1.77
2022-11-29T02:49:14.317Z,1.63
2022-11-29T02:51:55.633Z,1.83
2022-11-29T02:54:50.602Z,1.70
2022-11-29T02:57:33.329Z,1.87
2022-11-29T03:00:08.016Z,2.60
2022-11-29T03:02:40.848Z,2.20
2022-11-29T03:05:07.325Z,2.10
2022-11-29T03:07:39.582Z,1.57
2022-11-29T03:10:24.922Z,1.93
2022-11-29T03:12:54.208Z,2.37
2022-11-29T03:15:26.717Z,2.40
2022-11-29T03:17:59.300Z,2.20
2022-11-29T03:20:45.460Z,2.00
2022-11-29T03:23:33.857Z,2.33
2022-11-29T03:26:11.476Z,1.60
2022-11-29T03:29:07.792Z,4.60
2022-11-29T03:31:45.130Z,3.50
2022-11-29T03:34:42.043Z,2.33
2022-11-29T03:37:26.051Z,2.20
2022-11-29T03:40:02.356Z,2.27
2022-11-29T03:42:38.824Z,1.83
2022-11-29T03:45:10.800Z,2.37
2022-11-29T03:47:48.786Z,2.40
2022-11-29T03:50:22.390Z,3.17
2022-11-29T03:53:34.172Z,3.07
2022-11-29T03:56:03.152Z,2.57
2022-11-29T03:59:01.644Z,2.07
2022-11-29T04:01:45.491Z,3.67
2022-11-29T04:04:39.204Z,2.23
2022-11-29T04:07:47.431Z,2.17
2022-11-29T04:10:17.054Z,2.30
2022-11-29T04:13:14.779Z,4.00
2022-11-29T04:16:00.099Z,2.40
2022-11-29T04:19:04.554Z,2.40
2022-11-29T04:21:38.217Z,3.30
2022-11-29T04:24:35.773Z,2.83
2022-11-29T04:27:11.197Z,3.10
2022-11-29T04:30:02.287Z,2.90
2022-11-29T04:32:59.807Z,2.43
2022-11-29T04:35:56.944Z,2.00
2022-11-29T04:38:42.164Z,3.20
2022-11-29T04:41:17.896Z,3.03
2022-11-29T04:43:57.568Z,3.43
2022-11-29T04:47:06.050Z,3.00
2022-11-29T04:49:55.972Z,3.30
2022-11-29T04:52:41.379Z,3.13
2022-11-29T04:55:35.375Z,3.40
2022-11-29T04:58:29.718Z,3.93
2022-11-29T05:00:59.157Z,4.73
2022-11-29T05:03:35.987Z,3.13
2022-11-29T05:06:30.448Z,3.20
2022-11-29T05:09:10.433Z,3.50
2022-11-29T05:12:18.547Z,2.67
2022-11-29T05:15:24.729Z,3.63
2022-11-29T05:18:16.646Z,3.17
2022-11-29T05:21:30.736Z,2.60
2022-11-29T05:24:03.431Z,2.80
2022-11-29T05:26:38.472Z,3.53
2022-11-29T05:29:16.947Z,4.27
2022-11-29T05:32:21.149Z,2.83
2022-11-29T05:35:01.127Z,3.87
2022-11-29T05:37:49.589Z,3.03
2022-11-29T05:40:52.200Z,4.83
2022-11-29T05:43:38.854Z,4.13
2022-11-29T05:46:18.649Z,4.23
2022-11-29T05:49:20.030Z,22.83
2022-11-29T05:52:24.341Z,7.13
2022-11-29T05:55:11.832Z,19.13
2022-11-29T05:57:57.049Z,16.93
2022-11-29T06:00:26.999Z,16.17
2022-11-29T06:03:19.196Z,8.13
2022-11-29T06:05:57.679Z,11.33
2022-11-29T06:08:39.988Z,5.03
2022-11-29T06:11:17.786Z,5.90
2022-11-29T06:14:01.109Z,10.47
2022-11-29T06:16:50.950Z,10.03
2022-11-29T06:20:00.193Z,8.30
2022-11-29T06:22:50.456Z,8.70
2022-11-29T06:25:50.891Z,8.50
2022-11-29T06:28:26.583Z,7.37
2022-11-29T06:30:55.891Z,5.90
2022-11-29T06:33:28.888Z,5.50
2022-11-29T06:36:16.628Z,5.90
2022-11-29T06:38:43.469Z,7.60
2022-11-29T06:41:18.377Z,7.20
2022-11-29T06:43:45.204Z,5.17
2022-11-29T06:46:47.198Z,6.13
2022-11-29T06:49:25.800Z,5.97
2022-11-29T06:51:58.528Z,5.53
2022-11-29T06:54:39.018Z,4.50
2022-11-29T06:57:22.192Z,7.20
2022-11-29T06:59:54.888Z,7.60
2022-11-29T07:02:35.314Z,5.97
2022-11-29T07:05:20.458Z,7.77
2022-11-29T07:07:48.454Z,4.67
2022-11-29T07:10:18.470Z,4.37
2022-11-29T07:12:47.506Z,5.70
2022-11-29T07:15:20.350Z,4.97
2022-11-29T07:18:25.112Z,3.73
2022-11-29T07:21:09.809Z,4.03
2022-11-29T07:23:52.712Z,7.50
2022-11-29T07:26:29.413Z,5.67
2022-11-29T07:29:01.957Z,4.37
2022-11-29T07:31:48.664Z,3.73
2022-11-29T07:34:25.948Z,3.87
2022-11-29T07:37:23.779Z,3.33
2022-11-29T07:40:02.746Z,2.73
2022-11-29T07:43:07.025Z,3.70
2022-11-29T07:45:37.890Z,3.83
2022-11-29T07:48:05.248Z,5.23
2022-11-29T07:50:31.837Z,5.77
2022-11-29T07:52:59.987Z,4.67
2022-11-29T07:55:27.373Z,3.27
2022-11-29T07:57:53.915Z,2.97
2022-11-29T08:00:21.507Z,3.47
2022-11-29T08:02:49.524Z,3.77
2022-11-29T08:05:16.577Z,3.63
2022-11-29T08:07:43.717Z,4.20
2022-11-29T08:10:14.412Z,3.13
2022-11-29T08:12:50.177Z,4.50
2022-11-29T08:15:18.583Z,2.90
2022-11-29T08:17:45.311Z,2.40
2022-11-29T08:20:13.978Z,1.60
2022-11-29T08:22:40.558Z,3.10
2022-11-29T08:25:08.257Z,2.03
2022-11-29T08:27:36.544Z,3.00
2022-11-29T08:30:04.270Z,2.90
2022-11-29T08:32:30.781Z,1.80
2022-11-29T08:34:57.569Z,1.10
2022-11-29T08:37:24.094Z,2.47
2022-11-29T08:39:50.613Z,1.87
2022-11-29T08:42:17.121Z,1.40
2022-11-29T08:44:43.932Z,1.83
2022-11-29T08:47:29.292Z,2.07
2022-11-29T08:50:01.566Z,1.50
2022-11-29T08:52:47.661Z,2.03
2022-11-29T08:55:14.498Z,2.37
2022-11-29T08:57:41.395Z,2.33
2022-11-29T09:00:09.294Z,3.17
2022-11-29T09:02:37.129Z,3.07
2022-11-29T09:05:04.926Z,2.20
2022-11-29T09:07:31.497Z,1.97
2022-11-29T09:09:58.010Z,4.80
2022-11-29T09:12:24.696Z,4.17
2022-11-29T09:14:51.242Z,3.33
2022-11-29T09:17:17.768Z,2.33
2022-11-29T09:19:44.239Z,2.83
2022-11-29T09:22:10.931Z,2.03
2022-11-29T09:24:37.407Z,2.57
2022-11-29T09:27:04.458Z,3.63
2022-11-29T09:29:31.141Z,2.60
2022-11-29T09:31:57.792Z,4.03
2022-11-29T09:34:24.665Z,2.20
2022-11-29T09:36:51.600Z,1.67
2022-11-29T09:39:18.157Z,2.33
2022-11-29T09:42:23.940Z,2.20
2022-11-29T09:45:01.899Z,2.27
2022-11-29T09:47:33.105Z,2.27
2022-11-29T09:50:24.594Z,2.63
2022-11-29T09:52:57.201Z,2.97
2022-11-29T09:55:48.486Z,2.27
2022-11-29T09:58:23.168Z,2.83
2022-11-29T10:00:53.441Z,4.77
2022-11-29T10:03:25.540Z,2.90
2022-11-29T10:06:01.020Z,2.43
2022-11-29T10:08:38.382Z,3.80
2022-11-29T10:11:28.256Z,2.80
2022-11-29T10:14:05.945Z,2.50
2022-11-29T10:17:14.141Z,2.53
2022-11-29T10:19:50.810Z,2.40
2022-11-29T10:22:21.462Z,2.50
2022-11-29T10:24:52.330Z,2.30
2022-11-29T10:27:23.217Z,2.33
2022-11-29T10:29:51.280Z,3.73
2022-11-29T10:32:21.372Z,2.17
2022-11-29T10:34:49.504Z,3.07
2022-11-29T10:37:20.918Z,3.70
2022-11-29T10:39:50.770Z,4.53
2022-11-29T10:42:45.528Z,5.60
2022-11-29T10:45:24.688Z,27.83
2022-11-29T10:47:53.861Z,39.57
2022-11-29T10:50:26.496Z,3.60
2022-11-29T10:53:01.394Z,4.17
2022-11-29T10:55:34.915Z,2.93
2022-11-29T10:58:22.068Z,6.73
2022-11-29T11:00:58.888Z,2.90
2022-11-29T11:03:33.825Z,2.70
2022-11-29T11:06:03.022Z,8.63
2022-11-29T11:08:31.541Z,3.80
2022-11-29T11:11:01.756Z,2.47
2022-11-29T11:13:31.103Z,2.40
2022-11-29T11:16:19.529Z,3.07
2022-11-29T11:18:48.026Z,2.93
2022-11-29T11:21:18.597Z,3.33
2022-11-29T11:23:53.477Z,2.70
2022-11-29T11:26:20.420Z,3.63
2022-11-29T11:28:46.846Z,4.40
2022-11-29T11:31:14.144Z,2.70
2022-11-29T11:33:43.046Z,3.00
2022-11-29T11:36:21.583Z,3.33
2022-11-29T11:39:11.611Z,2.83
2022-11-29T11:42:00.938Z,4.43
2022-11-29T11:44:50.033Z,3.17
2022-11-29T11:47:29.493Z,3.43
2022-11-29T11:50:05.085Z,3.60
2022-11-29T11:52:43.823Z,3.50
2022-11-29T11:55:21.449Z,5.57
2022-11-29T11:58:14.367Z,3.97
2022-11-29T12:01:02.797Z,3.50
2022-11-29T12:03:49.351Z,3.43
2022-11-29T12:06:43.933Z,2.93
2022-11-29T12:09:28.743Z,3.53
2022-11-29T12:12:10.454Z,3.30
2022-11-29T12:15:00.006Z,3.97
2022-11-29T12:17:46.609Z,3.93
2022-11-29T12:20:13.363Z,4.50
2022-11-29T12:22:48.674Z,3.67
2022-11-29T12:25:21.838Z,3.03
2022-11-29T12:27:51.759Z,5.23
2022-11-29T12:30:19.438Z,3.80
2022-11-29T12:33:06.945Z,8.60
2022-11-29T12:35:50.133Z,4.33
2022-11-29T12:38:32.120Z,3.37
2022-11-29T12:41:01.668Z,3.43
2022-11-29T12:43:45.601Z,3.07
2022-11-29T12:46:22.903Z,5.00
2022-11-29T12:49:06.582Z,2.93
2022-11-29T12:52:01.271Z,5.23
2022-11-29T12:54:39.890Z,3.43
2022-11-29T12:57:23.830Z,3.03
2022-11-29T13:00:07.723Z,3.67
2022-11-29T13:03:04.146Z,5.50
2022-11-29T13:06:01.533Z,3.63
2022-11-29T13:09:23.663Z,3.13
2022-11-29T13:11:55.811Z,3.70
2022-11-29T13:14:49.767Z,3.43
2022-11-29T13:17:48.750Z,6.30
2022-11-29T13:20:33.904Z,3.13
2022-11-29T13:23:08.858Z,2.97
2022-11-29T13:25:46.886Z,4.13
2022-11-29T13:28:33.049Z,2.73
2022-11-29T13:31:06.838Z,4.63
2022-11-29T13:34:01.841Z,3.17
2022-11-29T13:36:43.585Z,3.40
2022-11-29T13:39:41.048Z,3.73
2022-11-29T13:42:17.560Z,4.70
2022-11-29T13:44:50.176Z,3.77
2022-11-29T13:47:19.359Z,3.67
2022-11-29T13:49:52.856Z,4.33
2022-11-29T13:52:41.571Z,5.00
2022-11-29T13:55:23.281Z,3.97
2022-11-29T14:00:42.330Z,5.63
2022-11-29T14:03:24.202Z,4.27
2022-11-29T14:05:53.197Z,5.03
2022-11-29T14:08:54.485Z,4.47
2022-11-29T14:11:27.292Z,4.17
2022-11-29T14:14:01.113Z,4.37
2022-11-29T14:16:36.484Z,3.70
2022-11-29T14:19:21.089Z,4.67
2022-11-29T14:21:56.949Z,4.30
2022-11-29T14:24:32.513Z,3.77
2022-11-29T14:27:21.732Z,4.03
2022-11-29T14:29:52.693Z,3.73
2022-11-29T14:32:28.888Z,6.33
2022-11-29T14:35:02.063Z,6.00
2022-11-29T14:37:53.399Z,4.67
2022-11-29T14:40:40.156Z,3.97
2022-11-29T14:43:34.448Z,4.57
2022-11-29T14:46:08.375Z,5.30
2022-11-29T14:48:35.950Z,5.40
2022-11-29T14:51:16.168Z,4.10
2022-11-29T14:53:46.001Z,3.10
2022-11-29T14:56:35.275Z,3.77
2022-11-29T14:59:41.617Z,4.83
2022-11-29T15:02:29.628Z,3.80
2022-11-29T15:04:57.464Z,4.67
2022-11-29T15:07:29.468Z,4.23
2022-11-29T15:10:05.306Z,4.67
2022-11-29T15:12:37.205Z,4.17
2022-11-29T15:15:10.156Z,4.27
2022-11-29T15:17:55.483Z,4.43
2022-11-29T15:20:37.686Z,4.53
2022-11-29T15:23:14.653Z,4.70
2022-11-29T15:25:53.412Z,4.10
2022-11-29T15:28:28.319Z,3.90
2022-11-29T15:31:08.244Z,3.87
2022-11-29T15:33:39.093Z,4.13
2022-11-29T15:36:08.874Z,4.97
2022-11-29T15:38:50.038Z,3.50
2022-11-29T15:41:30.374Z,4.23
2022-11-29T15:44:07.452Z,6.27
2022-11-29T15:46:35.929Z,5.40
2022-11-29T15:49:37.947Z,4.53
2022-11-29T15:52:14.441Z,6.40
2022-11-29T15:54:51.249Z,3.30
2022-11-29T15:57:36.277Z,5.23
2022-11-29T16:00:06.628Z,3.73
2022-11-29T16:02:40.948Z,5.20
2022-11-29T16:05:20.520Z,4.30
2022-11-29T16:07:50.237Z,3.40
2022-11-29T16:10:19.923Z,5.37
2022-11-29T16:13:02.575Z,4.37
2022-11-29T16:15:30.965Z,3.70
2022-11-29T16:18:11.400Z,3.73
2022-11-29T16:20:38.029Z,3.67
2022-11-29T16:23:15.284Z,3.93
2022-11-29T16:26:14.776Z,5.40
2022-11-29T16:28:48.628Z,4.37
2022-11-29T16:31:31.041Z,3.80
2022-11-29T16:34:05.730Z,4.60
2022-11-29T16:36:32.363Z,3.90
2022-11-29T16:39:07.470Z,6.40
2022-11-29T16:41:38.507Z,7.00
2022-11-29T16:44:26.409Z,4.30
2022-11-29T16:47:30.626Z,5.27
2022-11-29T16:50:03.198Z,4.13
2022-11-29T16:52:32.650Z,4.07
2022-11-29T16:54:59.347Z,5.20
2022-11-29T16:57:27.449Z,3.63
2022-11-29T16:59:54.048Z,4.83
2022-11-29T17:02:20.739Z,4.40
2022-11-29T17:04:47.738Z,6.50
2022-11-29T17:07:28.283Z,7.20
2022-11-29T17:09:55.831Z,5.97
2022-11-29T17:12:22.436Z,7.70
2022-11-29T17:14:49.077Z,4.07
2022-11-29T17:17:17.656Z,5.83
2022-11-29T17:19:44.906Z,5.30
2022-11-29T17:22:12.251Z,5.67
2022-11-29T17:24:43.593Z,4.53
2022-11-29T17:27:14.210Z,7.83
2022-11-29T17:29:41.057Z,5.70
2022-11-29T17:32:07.690Z,8.10
2022-11-29T17:34:34.603Z,6.40
2022-11-29T17:37:01.204Z,9.20
2022-11-29T17:39:27.757Z,8.90
2022-11-29T17:41:54.486Z,4.50
2022-11-29T17:44:21.250Z,5.20
2022-11-29T17:46:47.782Z,3.87
2022-11-29T17:49:14.358Z,4.53
2022-11-29T17:51:51.705Z,5.70
2022-11-29T17:54:19.535Z,4.77
2022-11-29T17:56:46.080Z,3.70
2022-11-29T17:59:12.850Z,3.70
2022-11-29T18:01:39.576Z,3.80
2022-11-29T18:04:08.523Z,3.90
2022-11-29T18:06:40.591Z,3.70
2022-11-29T18:09:09.095Z,3.67
2022-11-29T18:11:49.938Z,3.60
2022-11-29T18:14:23.725Z,3.40
2022-11-29T18:16:50.880Z,5.47
2022-11-29T18:19:20.252Z,6.23
2022-11-29T18:21:47.758Z,4.30
2022-11-29T18:24:14.492Z,5.33
2022-11-29T18:26:41.569Z,3.30
2022-11-29T18:29:08.540Z,4.20
2022-11-29T18:31:37.967Z,6.57
2022-11-29T18:34:07.254Z,3.07
2022-11-29T18:36:37.017Z,4.13
2022-11-29T18:39:09.404Z,5.27
2022-11-29T18:41:37.280Z,4.47
2022-11-29T18:44:07.281Z,5.10
2022-11-29T18:46:37.114Z,3.70
2022-11-29T18:49:05.965Z,4.63
2022-11-29T18:51:33.353Z,4.70
2022-11-29T18:54:01.035Z,4.00
2022-11-29T18:56:30.070Z,4.60
2022-11-29T18:59:04.759Z,7.70
2022-11-29T19:01:34.360Z,5.97
2022-11-29T19:04:01.751Z,4.13
2022-11-29T19:06:39.371Z,5.33
2022-11-29T19:09:11.239Z,5.30
2022-11-29T19:11:38.100Z,5.13
2022-11-29T19:14:11.121Z,5.67
2022-11-29T19:16:39.479Z,4.50
2022-11-29T19:19:07.645Z,5.73
2022-11-29T19:21:34.724Z,4.63
2022-11-29T19:24:03.730Z,5.37
2022-11-29T19:26:31.365Z,8.00
2022-11-29T19:29:00.067Z,4.90
2022-11-29T19:31:27.678Z,5.40
2022-11-29T19:33:55.222Z,7.13
2022-11-29T19:36:24.417Z,5.33
2022-11-29T19:38:53.955Z,5.50
2022-11-29T19:41:26.726Z,5.47
2022-11-29T19:43:53.890Z,6.30
2022-11-29T19:46:23.429Z,6.93
2022-11-29T19:48:52.384Z,7.83
2022-11-29T19:51:20.063Z,7.70
2022-11-29T19:53:47.356Z,5.33
2022-11-29T19:56:16.854Z,4.80
2022-11-29T19:58:44.494Z,5.00
2022-11-29T20:01:19.019Z,6.40
2022-11-29T20:03:46.323Z,8.00
2022-11-29T20:06:13.677Z,7.23
2022-11-29T20:08:41.006Z,5.77
2022-11-29T20:11:10.006Z,6.27
2022-11-29T20:13:41.167Z,5.93
2022-11-29T20:16:14.785Z,6.37
2022-11-29T20:18:48.956Z,6.10
2022-11-29T20:21:20.386Z,8.03
2022-11-29T20:23:47.424Z,6.33
2022-11-29T20:26:16.085Z,6.90
2022-11-29T20:28:44.134Z,8.57
2022-11-29T20:31:16.234Z,5.83
2022-11-29T20:33:44.025Z,6.27
2022-11-29T20:36:42.291Z,10.37
2022-11-29T20:39:44.952Z,7.27
2022-11-29T20:42:31.595Z,8.50
2022-11-29T20:45:04.233Z,8.00
2022-11-29T20:47:49.173Z,6.87
2022-11-29T20:50:23.686Z,7.77
2022-11-29T20:53:05.827Z,5.80
2022-11-29T20:55:32.681Z,6.53
2022-11-29T20:57:59.237Z,9.53
2022-11-29T21:00:25.827Z,8.30
2022-11-29T21:02:52.531Z,10.20
2022-11-29T21:05:19.071Z,8.53
2022-11-29T21:07:46.697Z,7.70
2022-11-29T21:10:15.650Z,8.80
2022-11-29T21:12:45.635Z,7.53
2022-11-29T21:15:14.190Z,8.87
2022-11-29T21:17:42.596Z,6.87
2022-11-29T21:20:17.767Z,10.50
2022-11-29T21:22:52.899Z,10.83
2022-11-29T21:25:43.129Z,7.80
2022-11-29T21:28:14.267Z,9.17
2022-11-29T21:30:42.002Z,8.33
2022-11-29T21:33:09.565Z,8.63
2022-11-29T21:35:39.662Z,10.57
2022-11-29T21:38:10.857Z,8.23
2022-11-29T21:40:37.345Z,8.73
2022-11-29T21:43:03.987Z,9.53
2022-11-29T21:45:30.510Z,9.57
2022-11-29T21:48:00.577Z,9.03
2022-11-29T21:50:27.345Z,8.80
2022-11-29T21:52:53.907Z,8.40
2022-11-29T21:55:20.518Z,10.33
2022-11-29T21:57:47.193Z,8.77
2022-11-29T22:00:14.288Z,8.53
2022-11-29T22:02:41.020Z,7.50
2022-11-29T22:05:09.718Z,7.10
2022-11-29T22:07:36.363Z,7.47
2022-11-29T22:10:09.974Z,10.23
2022-11-29T22:12:49.347Z,8.23
2022-11-29T22:15:22.929Z,11.20
2022-11-29T22:17:51.409Z,9.53
2022-11-29T22:20:17.951Z,8.83
2022-11-29T22:22:45.294Z,8.17
2022-11-29T22:25:11.929Z,9.93
2022-11-29T22:27:38.473Z,9.83
2022-11-29T22:30:05.826Z,11.37
2022-11-29T22:32:32.475Z,9.43
2022-11-29T22:34:59.019Z,9.87
2022-11-29T22:37:25.623Z,8.33
2022-11-29T22:39:52.320Z,9.10
2022-11-29T22:42:18.864Z,9.97
2022-11-29T22:44:45.756Z,13.17
2022-11-29T22:47:12.932Z,9.03
2022-11-29T22:49:39.397Z,8.60
2022-11-29T22:52:05.893Z,11.00
2022-11-29T22:54:32.825Z,8.63
2022-11-29T22:56:59.323Z,8.93
2022-11-29T22:59:25.791Z,9.10
2022-11-29T23:01:52.538Z,9.93
2022-11-29T23:04:19.071Z,9.60
2022-11-29T23:06:46.168Z,11.63
2022-11-29T23:09:22.560Z,9.93
2022-11-29T23:11:55.807Z,9.23
2022-11-29T23:14:23.452Z,10.73
2022-11-29T23:16:50.445Z,8.80
2022-11-29T23:19:17.393Z,10.33
2022-11-29T23:21:45.826Z,8.37
2022-11-29T23:24:13.595Z,8.10
2022-11-29T23:26:43.309Z,8.73
2022-11-29T23:29:13.076Z,8.60
2022-11-29T23:31:40.004Z,9.33
2022-11-29T23:34:06.987Z,8.13
2022-11-29T23:36:33.908Z,11.00
2022-11-29T23:39:00.913Z,10.23
2022-11-29T23:41:27.528Z,9.87
2022-11-29T23:43:54.125Z,9.53
2022-11-29T23:46:23.196Z,9.33
2022-11-29T23:48:50.221Z,9.30
2022-11-29T23:51:17.489Z,8.23
2022-11-29T23:53:44.612Z,7.77
2022-11-29T23:56:16.439Z,7.87
2022-11-29T23:58:43.883Z,8.10
